Time;durP1;ratioP1;P1;durP2;ratioP2;P2;SDS_P1;SDS_P2;PMS_P1;PMS_P2;Temp;Humidity;BMP_temperature;BMP_pressure;BME280_temperature;BME280_humidity;BME280_pressure;Samples;Min_cycle;Max_cycle;Signal;HPM_P1;HPM_P2
2023/12/12 00:00:29;;;;;;;6.10;2.90;;;9.20;99.90;;;;;;4988639;28;20183;-74
2023/12/12 00:02:58;;;;;;;5.23;2.50;;;9.20;99.90;;;;;;4991427;28;20444;-74
2023/12/12 00:05:24;;;;;;;5.70;2.63;;;9.20;99.90;;;;;;4991216;28;20438;-74
2023/12/12 00:07:49;;;;;;;4.40;2.27;;;9.20;99.90;;;;;;4992130;28;20931;-74
2023/12/12 00:10:15;;;;;;;5.63;2.20;;;9.20;99.90;;;;;;4990530;28;20829;-74
2023/12/12 00:12:41;;;;;;;5.40;2.40;;;9.20;99.90;;;;;;4990622;28;20226;-74
2023/12/12 00:15:07;;;;;;;5.23;2.50;;;9.20;99.90;;;;;;4989580;28;20435;-74
2023/12/12 00:17:33;;;;;;;7.03;3.20;;;9.20;99.90;;;;;;4989530;28;20728;-74
2023/12/12 00:19:59;;;;;;;6.90;2.60;;;9.20;99.90;;;;;;4988635;28;20430;-74
2023/12/12 00:22:24;;;;;;;4.67;2.50;;;9.20;99.90;;;;;;4989765;28;20641;-74
2023/12/12 00:24:50;;;;;;;9.47;2.90;;;9.20;99.90;;;;;;4989116;28;20184;-74
2023/12/12 00:27:16;;;;;;;5.70;2.13;;;9.20;99.90;;;;;;4987815;28;20426;-74
2023/12/12 00:29:41;;;;;;;3.43;2.30;;;9.20;99.90;;;;;;4989855;28;20192;-74
2023/12/12 00:32:07;;;;;;;5.60;2.43;;;9.20;99.90;;;;;;4988193;28;20202;-73
2023/12/12 00:34:37;;;;;;;5.60;2.50;;;9.20;99.90;;;;;;4990154;28;20190;-74
2023/12/12 00:37:03;;;;;;;5.30;2.60;;;9.20;99.90;;;;;;4988402;28;20208;-74
2023/12/12 00:39:28;;;;;;;6.37;3.33;;;9.20;99.90;;;;;;4990053;28;20465;-74
2023/12/12 00:41:54;;;;;;;3.50;2.73;;;9.20;99.90;;;;;;4990255;28;20476;-74
2023/12/12 00:44:20;;;;;;;5.17;2.33;;;9.20;99.90;;;;;;4989228;28;20183;-74
2023/12/12 00:46:45;;;;;;;4.23;2.10;;;9.20;99.90;;;;;;4989548;28;20190;-74
2023/12/12 00:49:11;;;;;;;7.63;2.67;;;9.20;99.90;;;;;;4987216;28;20181;-74
2023/12/12 00:51:37;;;;;;;5.37;2.10;;;9.20;99.90;;;;;;4988533;28;20190;-74
2023/12/12 00:54:03;;;;;;;6.33;2.43;;;9.20;99.90;;;;;;4989979;28;20652;-74
2023/12/12 00:56:29;;;;;;;5.27;2.70;;;9.20;99.90;;;;;;4973276;28;20475;-74
2023/12/12 00:58:54;;;;;;;7.40;2.60;;;9.20;99.90;;;;;;4991397;28;20439;-74
2023/12/12 01:01:20;;;;;;;8.77;2.70;;;9.20;99.90;;;;;;4991294;28;20661;-74
2023/12/12 01:03:46;;;;;;;4.90;2.13;;;9.20;99.90;;;;;;4992999;28;20668;-74
2023/12/12 01:06:23;;;;;;;9.03;2.80;;;9.20;99.90;;;;;;4989830;28;20186;-74
2023/12/12 01:08:49;;;;;;;5.17;2.40;;;9.10;99.90;;;;;;4991057;28;20182;-74
2023/12/12 01:11:14;;;;;;;8.40;2.63;;;9.10;99.90;;;;;;4990679;28;20438;-74
2023/12/12 01:13:40;;;;;;;6.03;2.70;;;9.10;99.90;;;;;;4991331;28;20226;-74
2023/12/12 01:16:06;;;;;;;6.27;2.23;;;9.10;99.90;;;;;;4988858;28;20216;-74
2023/12/12 01:18:32;;;;;;;11.50;3.60;;;9.20;99.90;;;;;;4990733;28;20190;-74
2023/12/12 01:20:58;;;;;;;7.20;2.70;;;9.20;99.90;;;;;;4990808;28;20443;-74
2023/12/12 01:23:23;;;;;;;5.80;2.57;;;9.20;99.90;;;;;;4991159;28;20451;-72
2023/12/12 01:25:49;;;;;;;5.10;2.30;;;9.20;99.90;;;;;;4990542;28;20219;-74
2023/12/12 01:28:15;;;;;;;3.50;2.03;;;9.20;99.90;;;;;;4990665;28;20191;-74
2023/12/12 01:30:40;;;;;;;8.63;2.97;;;9.20;99.90;;;;;;4990991;28;20768;-74
2023/12/12 01:33:06;;;;;;;10.40;3.07;;;9.20;99.90;;;;;;4990724;28;20211;-74
2023/12/12 01:35:32;;;;;;;6.13;2.87;;;9.20;99.90;;;;;;4989877;28;20191;-74
2023/12/12 01:37:57;;;;;;;3.70;2.30;;;9.20;99.90;;;;;;4990684;28;20307;-74
2023/12/12 01:40:23;;;;;;;4.17;2.43;;;9.20;99.90;;;;;;4990938;28;20184;-74
2023/12/12 01:42:49;;;;;;;8.20;2.70;;;9.20;99.90;;;;;;4991615;28;20688;-74
2023/12/12 01:45:14;;;;;;;9.23;3.30;;;9.20;99.90;;;;;;4993681;28;20191;-74
2023/12/12 01:47:40;;;;;;;7.17;3.13;;;9.20;99.90;;;;;;4993736;28;20681;-74
2023/12/12 01:50:07;;;;;;;6.87;2.80;;;9.20;99.90;;;;;;4994141;28;20179;-73
2023/12/12 01:52:34;;;;;;;5.30;2.70;;;9.20;99.90;;;;;;4993382;28;20438;-74
2023/12/12 01:55:00;;;;;;;8.83;3.07;;;9.20;99.90;;;;;;4991986;28;20517;-74
2023/12/12 01:57:26;;;;;;;6.57;2.97;;;9.20;99.90;;;;;;4991832;28;20469;-74
2023/12/12 01:59:52;;;;;;;9.77;2.50;;;9.20;99.90;;;;;;4992631;28;20253;-74
2023/12/12 02:02:19;;;;;;;11.80;3.00;;;9.20;99.90;;;;;;4993032;28;20487;-74
2023/12/12 02:04:48;;;;;;;7.93;2.80;;;9.20;99.90;;;;;;4995743;28;20434;-74
2023/12/12 02:07:14;;;;;;;6.87;3.17;;;9.20;99.90;;;;;;4993352;28;20426;-74
2023/12/12 02:09:40;;;;;;;7.90;3.03;;;9.20;99.90;;;;;;4993749;28;20849;-74
2023/12/12 02:12:06;;;;;;;12.03;3.37;;;9.20;99.90;;;;;;4993408;28;20184;-73
2023/12/12 02:14:33;;;;;;;10.07;3.80;;;9.20;99.90;;;;;;4993754;28;20928;-74
2023/12/12 02:16:59;;;;;;;9.40;2.67;;;9.20;99.90;;;;;;4992447;28;20469;-74
2023/12/12 02:19:24;;;;;;;7.77;3.30;;;9.10;99.90;;;;;;4994312;28;20800;-74
2023/12/12 02:21:50;;;;;;;8.80;2.90;;;9.20;99.90;;;;;;4993141;28;20187;-74
2023/12/12 02:24:16;;;;;;;7.60;3.30;;;9.20;99.90;;;;;;4992276;28;20692;-74
2023/12/12 02:26:41;;;;;;;8.20;3.30;;;9.20;99.90;;;;;;4992187;28;20540;-74
2023/12/12 02:29:08;;;;;;;7.77;2.70;;;9.10;99.90;;;;;;4992396;28;20183;-74
2023/12/12 02:31:33;;;;;;;9.87;3.63;;;9.10;99.90;;;;;;4992935;28;22536;-74
2023/12/12 02:33:59;;;;;;;8.17;3.27;;;9.10;99.90;;;;;;4991859;28;20451;-74
2023/12/12 02:36:25;;;;;;;3.90;2.80;;;9.10;99.90;;;;;;4993499;28;20215;-74
2023/12/12 02:38:50;;;;;;;8.13;2.83;;;9.10;99.90;;;;;;4993151;28;20198;-74
2023/12/12 02:41:16;;;;;;;5.90;2.50;;;9.10;99.90;;;;;;4992567;28;20183;-74
2023/12/12 02:43:42;;;;;;;7.27;3.07;;;9.10;99.90;;;;;;4991922;28;20879;-74
2023/12/12 02:46:07;;;;;;;7.47;2.97;;;9.10;99.90;;;;;;4991709;28;20255;-74
2023/12/12 02:48:33;;;;;;;5.63;3.03;;;9.10;99.90;;;;;;4993692;28;20830;-74
2023/12/12 02:50:59;;;;;;;4.23;2.60;;;9.10;99.90;;;;;;4992293;28;20191;-74
2023/12/12 02:53:24;;;;;;;6.77;3.13;;;9.10;99.90;;;;;;4993223;28;20303;-74
2023/12/12 02:55:50;;;;;;;6.60;2.83;;;9.10;99.90;;;;;;4991025;28;20248;-74
2023/12/12 02:58:15;;;;;;;6.00;2.60;;;9.10;99.90;;;;;;4991529;28;20219;-74
2023/12/12 03:00:41;;;;;;;10.07;3.10;;;9.10;99.90;;;;;;4993103;28;20202;-74
2023/12/12 03:03:07;;;;;;;12.00;2.97;;;9.10;99.90;;;;;;4992298;28;20199;-74
2023/12/12 03:05:32;;;;;;;6.20;2.90;;;9.10;99.90;;;;;;4995460;28;20278;-74
2023/12/12 03:07:58;;;;;;;7.03;3.10;;;9.10;99.90;;;;;;5006118;28;20200;-74
2023/12/12 03:10:24;;;;;;;9.73;3.27;;;9.20;99.90;;;;;;4993345;28;20552;-74
2023/12/12 03:12:49;;;;;;;8.63;2.87;;;9.10;99.90;;;;;;4992089;28;20230;-74
2023/12/12 03:15:15;;;;;;;8.07;2.40;;;9.10;99.90;;;;;;4991908;28;20207;-74
2023/12/12 03:17:41;;;;;;;9.67;3.43;;;9.10;99.90;;;;;;4993067;28;20257;-74
2023/12/12 03:20:07;;;;;;;7.43;2.60;;;9.10;99.90;;;;;;4992393;28;20195;-74
2023/12/12 03:22:33;;;;;;;6.77;2.60;;;9.10;99.90;;;;;;4993669;28;20299;-74
2023/12/12 03:25:00;;;;;;;6.50;2.93;;;9.10;99.90;;;;;;4991348;28;20554;-74
2023/12/12 03:27:25;;;;;;;7.13;2.93;;;9.10;99.90;;;;;;4992744;28;20187;-74
2023/12/12 03:29:51;;;;;;;6.87;2.63;;;9.10;99.90;;;;;;4991943;28;20874;-74
2023/12/12 03:32:17;;;;;;;9.87;2.90;;;9.10;99.90;;;;;;4992373;28;20203;-74
2023/12/12 03:34:42;;;;;;;13.30;3.63;;;9.10;99.90;;;;;;4992313;28;21212;-74
2023/12/12 03:37:08;;;;;;;12.07;2.60;;;9.10;99.90;;;;;;4991610;28;20222;-74
2023/12/12 03:39:35;;;;;;;10.70;3.30;;;9.10;99.90;;;;;;4993204;28;20209;-74
2023/12/12 03:42:01;;;;;;;10.50;3.60;;;9.10;99.90;;;;;;4990574;28;20187;-74
2023/12/12 03:44:26;;;;;;;9.13;2.73;;;9.10;99.90;;;;;;4992542;28;21075;-74
2023/12/12 03:46:52;;;;;;;8.93;2.67;;;9.10;99.90;;;;;;4974640;28;20681;-74
2023/12/12 03:49:18;;;;;;;10.13;3.40;;;9.10;99.90;;;;;;4991056;28;20191;-74
2023/12/12 03:51:43;;;;;;;15.23;4.03;;;9.10;99.90;;;;;;5005685;28;20285;-74
2023/12/12 03:54:09;;;;;;;10.93;3.00;;;9.10;99.90;;;;;;4992639;28;20267;-74
2023/12/12 03:56:35;;;;;;;13.27;3.57;;;9.10;99.90;;;;;;4992042;28;20250;-74
2023/12/12 03:59:01;;;;;;;11.40;3.50;;;9.10;99.90;;;;;;4992059;28;20191;-74
2023/12/12 04:01:26;;;;;;;14.23;3.33;;;9.10;99.90;;;;;;4992630;28;20487;-74
2023/12/12 04:03:52;;;;;;;10.67;3.37;;;9.10;99.90;;;;;;4993198;28;20192;-74
2023/12/12 04:06:18;;;;;;;10.00;3.50;;;9.00;99.90;;;;;;4992403;28;20282;-74
2023/12/12 04:08:43;;;;;;;10.10;3.60;;;9.10;99.90;;;;;;4990957;28;20203;-74
2023/12/12 04:11:09;;;;;;;11.93;3.70;;;9.00;99.90;;;;;;4992201;28;20184;-74
2023/12/12 04:13:34;;;;;;;5.33;3.00;;;9.10;99.90;;;;;;4990713;28;20182;-74
2023/12/12 04:16:00;;;;;;;8.70;3.30;;;9.10;99.90;;;;;;4991538;28;20192;-74
2023/12/12 04:18:26;;;;;;;10.50;3.33;;;9.10;99.90;;;;;;4958751;28;20609;-74
2023/12/12 04:20:51;;;;;;;12.50;4.13;;;9.10;99.90;;;;;;4991182;28;20253;-74
2023/12/12 04:23:17;;;;;;;10.40;3.63;;;9.10;99.90;;;;;;4992184;28;20184;-74
2023/12/12 04:25:43;;;;;;;12.63;3.33;;;9.10;99.90;;;;;;4989258;28;20184;-74
2023/12/12 04:28:08;;;;;;;11.90;4.00;;;9.10;99.90;;;;;;4990725;28;20186;-74
2023/12/12 04:30:34;;;;;;;9.33;3.30;;;9.00;99.90;;;;;;4989466;28;20187;-74
2023/12/12 04:33:00;;;;;;;12.93;3.40;;;9.10;99.90;;;;;;4990926;28;20850;-74
2023/12/12 04:35:25;;;;;;;19.43;5.27;;;9.00;99.90;;;;;;4991758;28;20191;-74
2023/12/12 04:37:51;;;;;;;11.87;4.50;;;9.10;99.90;;;;;;4990981;28;20222;-74
2023/12/12 04:40:17;;;;;;;10.93;4.73;;;9.10;99.90;;;;;;4991962;28;20598;-74
2023/12/12 04:42:42;;;;;;;11.17;4.63;;;9.10;99.90;;;;;;4989343;28;20605;-74
2023/12/12 04:45:08;;;;;;;15.77;4.30;;;9.10;99.90;;;;;;4990357;28;20707;-74
2023/12/12 04:47:34;;;;;;;16.60;4.87;;;9.00;99.90;;;;;;4990674;28;20266;-74
2023/12/12 04:50:00;;;;;;;16.73;4.77;;;9.10;99.90;;;;;;4991372;28;21300;-74
2023/12/12 04:52:27;;;;;;;8.77;5.93;;;9.00;99.90;;;;;;4990310;28;20768;-74
2023/12/12 04:54:53;;;;;;;14.47;5.30;;;9.00;99.90;;;;;;4989007;28;20203;-74
2023/12/12 04:57:19;;;;;;;10.63;4.73;;;9.10;99.90;;;;;;4990566;28;20535;-74
2023/12/12 04:59:45;;;;;;;12.03;4.33;;;9.10;99.90;;;;;;4990863;28;21202;-74
2023/12/12 05:02:10;;;;;;;14.43;5.10;;;9.00;99.90;;;;;;4991504;28;20194;-74
2023/12/12 05:04:37;;;;;;;16.33;5.30;;;9.00;99.90;;;;;;4990955;28;20195;-73
2023/12/12 05:07:04;;;;;;;18.33;5.43;;;9.00;99.90;;;;;;4991512;28;20629;-73
2023/12/12 05:09:29;;;;;;;13.80;4.80;;;9.00;99.90;;;;;;4990484;28;21188;-74
2023/12/12 05:11:55;;;;;;;15.20;4.20;;;9.00;99.90;;;;;;4989515;28;20431;-73
2023/12/12 05:14:21;;;;;;;13.43;5.27;;;8.90;99.90;;;;;;4991271;28;20831;-73
2023/12/12 05:16:47;;;;;;;10.73;4.40;;;8.90;99.90;;;;;;4988893;28;20231;-73
2023/12/12 05:19:12;;;;;;;13.77;4.40;;;9.00;99.90;;;;;;4994624;28;20438;-74
2023/12/12 05:21:38;;;;;;;9.40;4.30;;;8.90;99.90;;;;;;4993971;28;20542;-74
2023/12/12 05:24:05;;;;;;;9.73;4.33;;;8.90;99.90;;;;;;4994970;28;20188;-73
2023/12/12 05:26:31;;;;;;;10.70;4.83;;;8.80;99.90;;;;;;4992452;28;20187;-73
2023/12/12 05:28:57;;;;;;;11.90;4.90;;;8.90;99.90;;;;;;4993972;28;20483;-73
2023/12/12 05:31:24;;;;;;;16.67;4.90;;;8.80;99.90;;;;;;4990370;28;20252;-73
2023/12/12 05:33:50;;;;;;;13.50;4.47;;;8.80;99.90;;;;;;4992596;28;20195;-74
2023/12/12 05:36:15;;;;;;;9.57;4.00;;;8.80;99.90;;;;;;4994002;28;20438;-74
2023/12/12 05:38:42;;;;;;;10.03;4.03;;;8.70;99.90;;;;;;4992302;28;20491;-74
2023/12/12 05:41:07;;;;;;;10.67;4.03;;;8.70;99.90;;;;;;4992749;28;21135;-74
2023/12/12 05:43:33;;;;;;;15.63;5.00;;;8.60;99.90;;;;;;4992687;28;20587;-74
2023/12/12 05:45:59;;;;;;;13.23;4.87;;;8.50;99.90;;;;;;4993585;28;20187;-74
2023/12/12 05:48:25;;;;;;;13.63;4.90;;;8.60;99.90;;;;;;4993739;28;20191;-74
2023/12/12 05:50:50;;;;;;;14.97;4.97;;;8.50;99.90;;;;;;4992258;28;20431;-74
2023/12/12 05:53:16;;;;;;;10.23;4.63;;;8.50;99.90;;;;;;4989100;28;20198;-74
2023/12/12 05:55:42;;;;;;;13.10;4.70;;;8.50;99.90;;;;;;4990694;28;20221;-74
2023/12/12 05:58:07;;;;;;;13.40;4.20;;;8.40;99.90;;;;;;4993741;28;20215;-74
2023/12/12 06:00:33;;;;;;;11.37;5.13;;;8.40;99.90;;;;;;4993127;28;20192;-74
2023/12/12 06:02:59;;;;;;;16.53;4.50;;;8.40;99.90;;;;;;4993322;28;20715;-74
2023/12/12 06:05:24;;;;;;;11.83;4.90;;;8.40;99.90;;;;;;4993440;28;20237;-74
2023/12/12 06:07:50;;;;;;;11.60;4.80;;;8.40;99.90;;;;;;4991368;28;20245;-74
2023/12/12 06:10:18;;;;;;;15.00;5.10;;;8.40;99.90;;;;;;4991850;28;20190;-74
2023/12/12 06:12:44;;;;;;;15.83;4.90;;;8.40;99.90;;;;;;4992233;28;20219;-74
2023/12/12 06:15:10;;;;;;;11.63;4.70;;;8.40;99.90;;;;;;4992928;28;20426;-74
2023/12/12 06:17:36;;;;;;;17.13;4.30;;;8.40;99.90;;;;;;4993285;28;20477;-74
2023/12/12 06:20:03;;;;;;;16.20;4.50;;;8.40;99.90;;;;;;4993458;28;20191;-74
2023/12/12 06:22:28;;;;;;;16.73;5.57;;;8.40;99.90;;;;;;5095285;27;20451;-74
2023/12/12 06:24:54;;;;;;;11.93;4.93;;;8.40;99.90;;;;;;4993241;28;20438;-74
2023/12/12 06:27:20;;;;;;;13.13;6.00;;;8.40;99.90;;;;;;4992928;28;20191;-74
2023/12/12 06:29:48;;;;;;;9.27;5.60;;;8.40;99.90;;;;;;4993317;28;20435;-74
2023/12/12 06:32:14;;;;;;;13.87;4.77;;;8.40;99.90;;;;;;4993811;28;20549;-74
2023/12/12 06:34:39;;;;;;;11.57;6.07;;;8.40;99.90;;;;;;4992708;28;20473;-74
2023/12/12 06:37:05;;;;;;;14.30;6.13;;;8.40;99.90;;;;;;4991419;28;20218;-74
2023/12/12 06:39:32;;;;;;;15.73;6.03;;;8.40;99.90;;;;;;4992869;28;20647;-74
2023/12/12 06:41:58;;;;;;;12.87;4.37;;;8.40;99.90;;;;;;4992956;28;20571;-74
2023/12/12 06:44:24;;;;;;;12.00;5.63;;;8.40;99.90;;;;;;4993855;28;20257;-74
2023/12/12 06:46:49;;;;;;;17.43;5.30;;;8.30;99.90;;;;;;4992191;28;20447;-74
2023/12/12 06:49:15;;;;;;;17.33;5.20;;;8.30;99.90;;;;;;4993487;28;20186;-73
2023/12/12 06:51:41;;;;;;;11.73;4.97;;;8.30;99.90;;;;;;4991228;28;20226;-73
2023/12/12 06:54:06;;;;;;;16.23;5.33;;;8.30;99.90;;;;;;4993852;28;20223;-73
2023/12/12 06:56:32;;;;;;;12.43;4.27;;;8.20;99.90;;;;;;4992453;28;20523;-73
2023/12/12 06:58:58;;;;;;;17.20;7.27;;;8.30;99.90;;;;;;4992935;28;20192;-73
2023/12/12 07:01:23;;;;;;;12.23;5.13;;;8.30;99.90;;;;;;4993224;28;20245;-74
2023/12/12 07:03:49;;;;;;;16.60;5.33;;;8.30;99.90;;;;;;4993323;28;20984;-74
2023/12/12 07:06:21;;;;;;;13.73;5.73;;;8.30;99.90;;;;;;4993276;28;20347;-73
2023/12/12 07:08:46;;;;;;;11.37;4.30;;;8.40;99.90;;;;;;4992788;28;20682;-73
2023/12/12 07:11:12;;;;;;;22.50;4.87;;;8.30;99.90;;;;;;4988531;28;20447;-73
2023/12/12 07:13:38;;;;;;;17.07;6.57;;;8.30;99.90;;;;;;4992299;28;20210;-73
2023/12/12 07:16:10;;;;;;;9.87;5.77;;;8.30;99.90;;;;;;4992223;28;20183;-73
2023/12/12 07:18:38;;;;;;;15.37;4.70;;;8.40;99.90;;;;;;4991391;28;20445;-73
2023/12/12 07:21:07;;;;;;;11.40;4.23;;;8.40;99.90;;;;;;5092605;27;20481;-73
2023/12/12 07:23:34;;;;;;;13.10;4.73;;;8.40;99.90;;;;;;4990147;28;20445;-73
2023/12/12 07:26:00;;;;;;;9.43;4.53;;;8.40;99.90;;;;;;4990929;28;20475;-73
2023/12/12 07:28:27;;;;;;;14.50;4.63;;;8.40;99.90;;;;;;4990200;28;21195;-74
2023/12/12 07:30:55;;;;;;;12.57;4.13;;;8.40;99.90;;;;;;4989110;28;20448;-73
2023/12/12 07:33:21;;;;;;;10.23;4.57;;;8.40;99.90;;;;;;4989511;28;20458;-73
2023/12/12 07:35:46;;;;;;;10.83;5.30;;;8.40;99.90;;;;;;4990773;28;20481;-73
2023/12/12 07:38:12;;;;;;;9.33;4.47;;;8.40;99.90;;;;;;4992274;28;20277;-73
2023/12/12 07:40:38;;;;;;;11.13;4.40;;;8.40;99.90;;;;;;4991396;28;20187;-73
2023/12/12 07:43:04;;;;;;;19.10;5.33;;;8.40;99.90;;;;;;4991002;28;20199;-73
2023/12/12 07:45:29;;;;;;;11.33;3.53;;;8.40;99.90;;;;;;4991502;28;20215;-73
2023/12/12 07:47:55;;;;;;;14.80;4.93;;;8.50;99.90;;;;;;4991102;28;20194;-73
2023/12/12 07:50:21;;;;;;;14.30;4.73;;;8.40;99.90;;;;;;4992224;28;20219;-72
2023/12/12 07:52:47;;;;;;;12.90;3.73;;;8.40;99.90;;;;;;4990709;28;20195;-73
2023/12/12 07:55:13;;;;;;;12.17;4.50;;;8.40;99.90;;;;;;4991045;28;20898;-73
2023/12/12 07:57:39;;;;;;;11.40;3.90;;;8.40;99.90;;;;;;4991694;28;20507;-73
2023/12/12 08:00:06;;;;;;;9.23;4.10;;;8.50;99.90;;;;;;4990791;28;21062;-73
2023/12/12 08:02:32;;;;;;;11.50;4.57;;;8.50;99.90;;;;;;4990699;28;20886;-73
2023/12/12 08:04:58;;;;;;;10.20;4.10;;;8.50;99.90;;;;;;4992339;28;20534;-73
2023/12/12 08:07:24;;;;;;;10.97;4.30;;;8.50;99.90;;;;;;4992032;28;20439;-73
2023/12/12 08:09:49;;;;;;;9.70;3.50;;;8.50;99.90;;;;;;4990781;28;21280;-73
2023/12/12 08:12:16;;;;;;;15.40;4.07;;;8.50;99.90;;;;;;4991179;28;20188;-73
2023/12/12 08:14:42;;;;;;;17.70;4.20;;;8.50;99.90;;;;;;4988561;28;20279;-73
2023/12/12 08:17:07;;;;;;;8.90;3.67;;;8.50;99.90;;;;;;4990697;28;20545;-73
2023/12/12 08:19:33;;;;;;;14.60;4.60;;;8.50;99.90;;;;;;4990062;28;20199;-73
2023/12/12 08:21:59;;;;;;;13.77;4.60;;;8.50;99.90;;;;;;4990778;28;20194;-73
2023/12/12 08:24:25;;;;;;;11.07;4.90;;;8.50;99.90;;;;;;4990976;28;20677;-73
2023/12/12 08:26:50;;;;;;;10.13;4.47;;;8.50;99.90;;;;;;4990757;28;20316;-73
2023/12/12 08:29:16;;;;;;;11.27;4.00;;;8.50;99.90;;;;;;4991404;28;20684;-73
2023/12/12 08:31:42;;;;;;;8.80;4.33;;;8.50;99.90;;;;;;4990398;28;20191;-73
2023/12/12 08:34:08;;;;;;;13.50;4.40;;;8.50;99.90;;;;;;4991601;28;20579;-73
2023/12/12 08:36:34;;;;;;;12.10;3.70;;;8.60;99.90;;;;;;4990745;28;20478;-72
2023/12/12 08:39:00;;;;;;;15.43;3.80;;;8.60;99.90;;;;;;4990822;28;20445;-74
2023/12/12 08:41:31;;;;;;;14.10;4.47;;;8.60;99.90;;;;;;4991772;28;20434;-74
2023/12/12 08:43:58;;;;;;;6.73;3.20;;;8.70;99.90;;;;;;4990212;28;20440;-74
2023/12/12 08:46:26;;;;;;;11.83;3.37;;;8.60;99.90;;;;;;4991282;28;20808;-74
2023/12/12 08:48:54;;;;;;;10.17;4.00;;;8.70;99.90;;;;;;4990193;28;20462;-74
2023/12/12 08:51:20;;;;;;;13.80;4.60;;;8.70;99.90;;;;;;4990760;28;20443;-74
2023/12/12 08:53:45;;;;;;;18.03;4.50;;;8.70;99.90;;;;;;4973260;28;21148;-75
2023/12/12 08:56:14;;;;;;;10.23;4.03;;;8.80;99.90;;;;;;4990919;28;20844;-74
2023/12/12 08:58:40;;;;;;;6.90;3.40;;;8.80;99.90;;;;;;4990811;28;20191;-74
2023/12/12 09:01:06;;;;;;;10.37;3.77;;;8.80;99.90;;;;;;4991252;28;20454;-74
2023/12/12 09:03:32;;;;;;;16.00;3.80;;;8.90;99.90;;;;;;4975220;28;20465;-74
2023/12/12 09:05:57;;;;;;;10.10;4.20;;;8.90;99.90;;;;;;4990786;28;20187;-74
2023/12/12 09:08:23;;;;;;;12.43;3.70;;;8.90;99.90;;;;;;4991036;28;20188;-74
2023/12/12 09:10:49;;;;;;;9.40;3.93;;;8.90;99.90;;;;;;4991414;28;20198;-74
2023/12/12 09:13:14;;;;;;;11.83;3.43;;;9.00;99.90;;;;;;4991148;28;20264;-73
2023/12/12 09:15:40;;;;;;;9.63;3.37;;;9.00;99.90;;;;;;4991034;28;20187;-73
2023/12/12 09:18:06;;;;;;;13.27;6.10;;;9.00;99.90;;;;;;4991155;28;20215;-74
2023/12/12 09:20:31;;;;;;;11.30;3.40;;;9.10;99.90;;;;;;4991253;28;20183;-73
2023/12/12 09:22:57;;;;;;;12.83;4.00;;;9.10;99.90;;;;;;4990476;28;20191;-74
2023/12/12 09:25:22;;;;;;;10.33;3.20;;;9.10;99.90;;;;;;4990585;28;20192;-74
2023/12/12 09:27:49;;;;;;;11.63;4.40;;;9.10;99.90;;;;;;4991238;28;20786;-73
2023/12/12 09:30:15;;;;;;;11.70;3.80;;;9.20;99.90;;;;;;4991014;28;20179;-73
2023/12/12 09:32:41;;;;;;;9.70;3.37;;;9.20;99.90;;;;;;4990243;28;20446;-73
2023/12/12 09:35:07;;;;;;;11.90;4.77;;;9.20;99.90;;;;;;4990012;28;20457;-73
2023/12/12 09:37:32;;;;;;;8.53;3.53;;;9.30;99.90;;;;;;5073717;28;20751;-74
2023/12/12 09:40:00;;;;;;;13.00;5.47;;;9.30;99.90;;;;;;4990307;28;20435;-73
2023/12/12 09:42:28;;;;;;;9.60;3.27;;;9.30;99.90;;;;;;4989362;28;20600;-73
2023/12/12 09:44:59;;;;;;;6.63;3.63;;;9.30;99.90;;;;;;4990729;28;20431;-73
2023/12/12 09:47:27;;;;;;;11.60;3.57;;;9.30;99.90;;;;;;4989696;28;20811;-73
2023/12/12 09:49:54;;;;;;;10.50;3.47;;;9.40;99.90;;;;;;4990357;28;20483;-74
2023/12/12 09:52:20;;;;;;;10.07;3.97;;;9.30;99.90;;;;;;4988919;28;20841;-73
2023/12/12 09:54:47;;;;;;;11.60;3.90;;;9.40;99.90;;;;;;4990855;28;20434;-74
2023/12/12 09:57:16;;;;;;;9.00;3.40;;;9.40;99.90;;;;;;4989916;28;20979;-73
2023/12/12 09:59:42;;;;;;;12.67;3.43;;;9.50;99.90;;;;;;4990137;28;21177;-74
2023/12/12 10:02:13;;;;;;;6.80;3.17;;;9.60;99.90;;;;;;4990050;28;20434;-74
2023/12/12 10:04:40;;;;;;;11.23;3.90;;;9.90;99.90;;;;;;4994069;28;20192;-73
2023/12/12 10:07:07;;;;;;;6.27;3.50;;;10.20;99.90;;;;;;4994186;28;20434;-73
2023/12/12 10:09:33;;;;;;;7.67;3.33;;;10.50;99.90;;;;;;4992635;28;21046;-73
2023/12/12 10:12:00;;;;;;;14.43;3.63;;;10.70;99.90;;;;;;4994531;28;20434;-74
2023/12/12 10:14:44;;;;;;;7.90;2.80;;;10.80;99.90;;;;;;4993235;28;20186;-74
2023/12/12 10:17:11;;;;;;;9.00;2.83;;;11.10;99.90;;;;;;4976053;28;20478;-73
2023/12/12 10:19:41;;;;;;;7.60;2.90;;;11.30;99.90;;;;;;4994400;28;20948;-74
2023/12/12 10:22:10;;;;;;;11.20;3.10;;;11.50;99.90;;;;;;4975943;28;20430;-73
2023/12/12 10:24:37;;;;;;;9.97;3.00;;;11.50;99.90;;;;;;4993410;28;20418;-74
2023/12/12 10:27:05;;;;;;;11.67;2.80;;;11.40;99.90;;;;;;4992457;28;20439;-74
2023/12/12 10:29:32;;;;;;;6.63;2.77;;;11.40;99.90;;;;;;5008385;28;20427;-74
2023/12/12 10:31:59;;;;;;;8.97;2.70;;;11.40;99.90;;;;;;4993163;28;20447;-74
2023/12/12 10:34:27;;;;;;;12.17;2.80;;;11.30;99.90;;;;;;4975075;28;20473;-74
2023/12/12 10:36:53;;;;;;;10.53;2.30;;;11.30;99.90;;;;;;4993351;28;21058;-74
2023/12/12 10:39:19;;;;;;;4.80;2.80;;;11.30;99.90;;;;;;4992238;28;20466;-74
2023/12/12 10:41:52;;;;;;;7.23;2.40;;;11.40;99.90;;;;;;4993662;28;20488;-74
2023/12/12 10:44:21;;;;;;;5.83;2.47;;;11.50;99.90;;;;;;4993141;28;20980;-74
2023/12/12 10:46:52;;;;;;;9.07;2.13;;;11.50;99.90;;;;;;4993732;28;21160;-74
2023/12/12 10:49:21;;;;;;;8.33;2.23;;;11.70;99.90;;;;;;4991652;28;20530;-74
2023/12/12 10:51:48;;;;;;;10.80;2.30;;;11.80;99.90;;;;;;4993717;28;20534;-75
2023/12/12 10:54:16;;;;;;;3.83;2.10;;;11.90;99.90;;;;;;4992047;28;21005;-74
2023/12/12 10:56:46;;;;;;;6.07;3.00;;;11.80;99.90;;;;;;4992898;28;20474;-74
2023/12/12 10:59:20;;;;;;;7.40;2.53;;;11.70;99.90;;;;;;4993416;28;20666;-74
2023/12/12 11:01:47;;;;;;;5.77;2.30;;;11.70;99.90;;;;;;4991653;28;20435;-74
2023/12/12 11:04:17;;;;;;;6.57;2.13;;;11.70;99.90;;;;;;4996052;28;20431;-74
2023/12/12 11:06:43;;;;;;;7.53;2.60;;;11.60;99.90;;;;;;4993227;28;20486;-74
2023/12/12 11:09:09;;;;;;;5.37;2.90;;;11.50;99.90;;;;;;4992742;28;20530;-74
2023/12/12 11:11:39;;;;;;;4.00;2.33;;;11.50;99.90;;;;;;4992673;28;20435;-74
2023/12/12 11:14:07;;;;;;;9.03;3.07;;;11.60;99.90;;;;;;5007839;28;20560;-74
2023/12/12 11:16:33;;;;;;;6.77;2.47;;;11.60;99.90;;;;;;4990711;28;20442;-74
2023/12/12 11:19:01;;;;;;;7.03;2.40;;;11.50;99.90;;;;;;4992395;28;20430;-74
2023/12/12 11:21:45;;;;;;;8.53;2.80;;;11.70;99.90;;;;;;4992383;28;20195;-74
2023/12/12 11:24:12;;;;;;;6.57;2.33;;;11.70;99.90;;;;;;4992506;28;20476;-73
2023/12/12 11:26:40;;;;;;;6.03;1.83;;;11.70;99.90;;;;;;4992443;28;20439;-74
2023/12/12 11:29:06;;;;;;;8.43;2.10;;;11.60;99.90;;;;;;4992521;28;20438;-74
2023/12/12 11:31:35;;;;;;;9.40;2.27;;;11.60;99.90;;;;;;4992266;28;20433;-74
2023/12/12 11:34:08;;;;;;;8.63;2.00;;;11.60;99.90;;;;;;4992339;28;20446;-74
2023/12/12 11:36:59;;;;;;;5.73;2.50;;;11.60;99.90;;;;;;5092695;27;20430;-74
2023/12/12 11:39:52;;;;;;;5.93;2.07;;;11.50;99.90;;;;;;4991403;28;21168;-74
2023/12/12 11:42:22;;;;;;;4.93;1.90;;;11.40;99.90;;;;;;4992370;28;20465;-74
2023/12/12 11:44:54;;;;;;;4.80;2.47;;;11.40;99.90;;;;;;4992395;28;20472;-74
2023/12/12 11:47:23;;;;;;;8.10;1.93;;;11.40;99.90;;;;;;4974118;28;20478;-74
2023/12/12 11:49:50;;;;;;;5.13;1.53;;;11.40;99.90;;;;;;4992252;28;20435;-74
2023/12/12 11:52:38;;;;;;;8.40;2.73;;;11.50;99.90;;;;;;4992005;28;20447;-74
2023/12/12 11:55:08;;;;;;;7.07;2.23;;;11.60;99.90;;;;;;4992777;28;21405;-74
2023/12/12 11:57:33;;;;;;;4.77;2.17;;;11.80;99.90;;;;;;4992053;28;20508;-74
2023/12/12 12:00:04;;;;;;;5.73;2.00;;;11.90;99.90;;;;;;4991891;28;20450;-74
2023/12/12 12:02:30;;;;;;;7.33;2.20;;;11.80;99.90;;;;;;4990598;28;20966;-74
2023/12/12 12:04:57;;;;;;;7.47;2.27;;;11.70;99.90;;;;;;4992693;28;20439;-73
2023/12/12 12:07:23;;;;;;;9.17;2.57;;;11.70;99.90;;;;;;4991826;28;20431;-73
2023/12/12 12:09:50;;;;;;;8.60;3.53;;;11.70;99.90;;;;;;4991795;28;20450;-73
2023/12/12 12:12:17;;;;;;;5.60;1.90;;;11.60;99.90;;;;;;4991902;28;20427;-73
2023/12/12 12:14:43;;;;;;;10.83;2.17;;;11.60;99.90;;;;;;4992016;28;20438;-73
2023/12/12 12:17:09;;;;;;;6.07;2.30;;;11.50;99.90;;;;;;4991695;28;20478;-73
2023/12/12 12:19:37;;;;;;;9.13;2.03;;;11.50;99.90;;;;;;4991584;28;20438;-73
2023/12/12 12:22:10;;;;;;;4.97;1.87;;;11.50;99.90;;;;;;4992225;28;20431;-73
2023/12/12 12:24:42;;;;;;;6.93;1.80;;;11.50;99.90;;;;;;4991359;28;20426;-73
2023/12/12 12:27:07;;;;;;;6.50;2.23;;;11.40;99.90;;;;;;4991704;28;20486;-74
2023/12/12 12:29:33;;;;;;;4.03;1.70;;;11.40;99.90;;;;;;4992371;28;20426;-73
2023/12/12 12:32:15;;;;;;;6.90;1.73;;;11.40;99.90;;;;;;4991742;28;20217;-73
2023/12/12 12:34:41;;;;;;;4.27;1.90;;;11.30;99.90;;;;;;4992311;28;20179;-73
2023/12/12 12:37:07;;;;;;;5.90;1.97;;;11.20;99.90;;;;;;4991237;28;20477;-73
2023/12/12 12:39:43;;;;;;;4.57;1.53;;;11.20;99.90;;;;;;4992352;28;20438;-73
2023/12/12 12:42:09;;;;;;;8.70;1.83;;;11.20;99.90;;;;;;4990802;28;20932;-73
2023/12/12 12:44:37;;;;;;;6.80;2.13;;;11.10;99.90;;;;;;4991087;28;20434;-73
2023/12/12 12:47:03;;;;;;;5.43;1.97;;;11.10;99.90;;;;;;4991284;28;20469;-73